Time;durP1;ratioP1;P1;durP2;ratioP2;P2;SDS_P1;SDS_P2;PMS_P1;PMS_P2;Temp;Humidity;BMP_temperature;BMP_pressure;BME280_temperature;BME280_humidity;BME280_pressure;Samples;Min_cycle;Max_cycle;Signal;HPM_P1;HPM_P2
2023/07/07 00:01:51;;;;;;;7.40;5.15;;;14.30;99.90;;;;;;4978740;28;20485;-64
2023/07/07 00:04:17;;;;;;;9.52;5.72;;;14.20;99.90;;;;;;4976966;28;20536;-64
2023/07/07 00:06:43;;;;;;;6.57;4.90;;;14.20;99.90;;;;;;4977829;28;20186;-62
2023/07/07 00:09:09;;;;;;;6.45;3.88;;;14.20;99.90;;;;;;4977436;28;20038;-65
2023/07/07 00:11:35;;;;;;;3.83;3.40;;;14.10;99.90;;;;;;4976849;28;20030;-66
2023/07/07 00:14:01;;;;;;;3.85;3.08;;;14.00;99.90;;;;;;4984215;28;20646;-65
2023/07/07 00:16:27;;;;;;;4.90;3.95;;;14.00;99.90;;;;;;4960846;28;20145;-65
2023/07/07 00:18:58;;;;;;;1.60;1.50;;;14.00;99.90;;;;;;4978454;28;20054;-63
2023/07/07 00:21:24;;;;;;;3.78;3.03;;;14.00;99.90;;;;;;4978907;28;20085;-64
2023/07/07 00:23:55;;;;;;;4.30;3.50;;;13.90;99.90;;;;;;4974639;28;20034;-63
2023/07/07 00:26:22;;;;;;;6.22;4.35;;;13.80;99.90;;;;;;4975303;28;20047;-62
2023/07/07 00:28:48;;;;;;;8.13;5.97;;;13.80;99.90;;;;;;4972808;28;20186;-63
2023/07/07 00:31:15;;;;;;;6.10;4.78;;;13.60;99.90;;;;;;4979198;28;20041;-64
2023/07/07 00:33:41;;;;;;;8.88;6.40;;;13.60;99.90;;;;;;4975179;28;20034;-63
2023/07/07 00:36:06;;;;;;;7.07;5.15;;;13.60;99.90;;;;;;4975239;28;20035;-66
2023/07/07 00:38:32;;;;;;;8.13;5.68;;;13.50;99.90;;;;;;4972876;28;20382;-64
2023/07/07 00:41:02;;;;;;;10.30;7.32;;;13.40;99.90;;;;;;4979810;28;20088;-65
2023/07/07 00:43:28;;;;;;;7.38;5.95;;;13.20;99.90;;;;;;4974862;28;20031;-65
2023/07/07 00:45:55;;;;;;;6.75;5.50;;;13.10;99.90;;;;;;4979789;28;20397;-65
2023/07/07 00:48:33;;;;;;;7.47;5.90;;;13.00;99.90;;;;;;4974290;28;20035;-64
2023/07/07 00:51:03;;;;;;;6.97;5.18;;;13.00;99.90;;;;;;4974842;28;20051;-65
2023/07/07 00:53:30;;;;;;;7.00;4.85;;;13.00;99.90;;;;;;4975112;28;20070;-64
2023/07/07 00:56:02;;;;;;;11.73;8.35;;;13.00;99.90;;;;;;4955406;28;20043;-65
2023/07/07 00:58:29;;;;;;;14.55;10.73;;;13.10;99.90;;;;;;4977367;28;20398;-65
2023/07/07 01:01:06;;;;;;;23.05;13.77;;;13.30;99.90;;;;;;4974794;28;20053;-64
2023/07/07 01:03:38;;;;;;;22.90;13.40;;;13.50;99.90;;;;;;4974734;28;20184;-63
2023/07/07 01:06:06;;;;;;;21.10;13.90;;;13.70;99.90;;;;;;4975726;28;20038;-63
2023/07/07 01:08:36;;;;;;;22.40;15.10;;;13.70;99.90;;;;;;4974545;28;20118;-63
2023/07/07 01:11:02;;;;;;;23.50;14.35;;;13.90;99.90;;;;;;4976600;28;20061;-63
2023/07/07 01:13:28;;;;;;;21.55;15.30;;;14.00;99.90;;;;;;4974380;28;20446;-63
2023/07/07 01:16:12;;;;;;;18.92;13.75;;;14.00;99.90;;;;;;4974062;28;20039;-63
2023/07/07 01:19:02;;;;;;;21.67;14.35;;;14.10;99.90;;;;;;4972375;28;20035;-64
2023/07/07 01:21:32;;;;;;;22.70;15.80;;;14.10;99.90;;;;;;4973872;28;20039;-64
2023/07/07 01:24:35;;;;;;;20.88;15.07;;;14.10;99.90;;;;;;4973976;28;20092;-64
2023/07/07 01:27:26;;;;;;;20.55;14.85;;;14.20;99.90;;;;;;4974576;28;20053;-65
2023/07/07 01:30:02;;;;;;;25.17;13.27;;;14.20;99.90;;;;;;4976588;28;20437;-65
2023/07/07 01:32:30;;;;;;;17.67;12.50;;;14.10;99.90;;;;;;4973440;28;20043;-64
2023/07/07 01:34:57;;;;;;;18.67;12.85;;;13.90;99.90;;;;;;4971404;28;20114;-62
2023/07/07 01:37:23;;;;;;;16.67;11.88;;;13.80;99.90;;;;;;4972830;28;20043;-64
2023/07/07 01:39:50;;;;;;;26.17;11.98;;;13.70;99.90;;;;;;4956599;28;20042;-65
2023/07/07 01:42:32;;;;;;;20.58;12.68;;;13.60;99.90;;;;;;4974082;28;20038;-65
2023/07/07 01:45:27;;;;;;;22.05;13.48;;;13.50;99.90;;;;;;4971416;28;20043;-65
2023/07/07 01:48:07;;;;;;;16.27;11.52;;;13.40;99.90;;;;;;4960030;28;20054;-64
2023/07/07 01:50:35;;;;;;;17.63;12.70;;;13.40;99.90;;;;;;4974127;28;20035;-65
2023/07/07 01:53:08;;;;;;;16.63;12.20;;;13.30;99.90;;;;;;4970865;28;20070;-64
2023/07/07 01:55:39;;;;;;;18.98;13.13;;;13.30;99.90;;;;;;4973823;28;20039;-65
2023/07/07 01:58:08;;;;;;;18.13;12.77;;;13.30;99.90;;;;;;4973584;28;20114;-64
2023/07/07 02:00:35;;;;;;;14.73;11.80;;;13.30;99.90;;;;;;4976824;28;20409;-65
2023/07/07 02:03:07;;;;;;;15.27;10.88;;;13.20;99.90;;;;;;4973265;28;20076;-64
2023/07/07 02:05:33;;;;;;;18.45;13.55;;;13.00;99.90;;;;;;4973441;28;20046;-64
2023/07/07 02:07:59;;;;;;;19.98;12.73;;;13.00;99.90;;;;;;4973329;28;20050;-64
2023/07/07 02:10:25;;;;;;;18.27;13.00;;;12.90;99.90;;;;;;4972185;28;20517;-64
2023/07/07 02:12:50;;;;;;;19.17;13.98;;;12.90;99.90;;;;;;4973202;28;20046;-64
2023/07/07 02:15:16;;;;;;;22.13;13.57;;;12.80;99.90;;;;;;4973752;28;20031;-65
2023/07/07 02:17:42;;;;;;;16.40;12.90;;;12.80;99.90;;;;;;4974685;28;20109;-65
2023/07/07 02:20:09;;;;;;;18.58;13.05;;;12.80;99.90;;;;;;4983633;28;20034;-64
2023/07/07 02:22:37;;;;;;;19.33;14.38;;;12.80;99.90;;;;;;4972913;28;20047;-65
2023/07/07 02:25:03;;;;;;;17.73;13.20;;;12.80;99.90;;;;;;4972473;28;20054;-65
2023/07/07 02:27:28;;;;;;;13.23;9.48;;;12.80;99.90;;;;;;4976289;28;20038;-65
2023/07/07 02:29:54;;;;;;;14.23;11.25;;;12.70;99.90;;;;;;4972822;28;20054;-65
2023/07/07 02:32:19;;;;;;;14.48;10.90;;;12.60;99.90;;;;;;4973117;28;20042;-65
2023/07/07 02:34:47;;;;;;;10.10;8.25;;;12.60;99.90;;;;;;4973328;28;20043;-66
2023/07/07 02:37:19;;;;;;;12.60;9.60;;;12.50;99.90;;;;;;4972564;28;20150;-66
2023/07/07 02:39:45;;;;;;;10.25;8.35;;;12.40;99.90;;;;;;4973441;28;20039;-65
2023/07/07 02:42:12;;;;;;;10.27;8.18;;;12.30;99.90;;;;;;4970195;28;20046;-65
2023/07/07 02:44:38;;;;;;;16.98;6.40;;;12.40;99.90;;;;;;4973900;28;20113;-62
2023/07/07 02:47:04;;;;;;;15.35;7.22;;;12.30;99.90;;;;;;4972230;28;20038;-63
2023/07/07 02:49:30;;;;;;;31.42;6.35;;;12.30;99.90;;;;;;4972388;28;20039;-62
2023/07/07 02:51:55;;;;;;;22.02;5.55;;;12.30;99.90;;;;;;4973744;28;20038;-63
2023/07/07 02:54:21;;;;;;;7.28;6.20;;;12.20;99.90;;;;;;4972493;28;20027;-65
2023/07/07 02:56:46;;;;;;;23.25;8.07;;;12.30;99.90;;;;;;4972797;28;20045;-65
2023/07/07 02:59:12;;;;;;;61.15;7.82;;;12.30;99.90;;;;;;4936585;28;20039;-66
2023/07/07 03:01:39;;;;;;;7.38;6.20;;;12.30;99.90;;;;;;4975683;28;20105;-65
2023/07/07 03:04:05;;;;;;;7.95;6.20;;;12.20;99.90;;;;;;4972046;28;20093;-65
2023/07/07 03:06:31;;;;;;;7.85;6.43;;;12.20;99.90;;;;;;4955478;28;20050;-65
2023/07/07 03:08:56;;;;;;;8.90;4.85;;;12.20;99.90;;;;;;4974782;28;20574;-63
2023/07/07 03:11:23;;;;;;;24.42;4.38;;;12.10;99.90;;;;;;4972067;28;20039;-63
2023/07/07 03:13:49;;;;;;;55.60;5.00;;;12.00;99.90;;;;;;4972737;28;20035;-63
2023/07/07 03:16:20;;;;;;;12.38;8.00;;;12.00;99.90;;;;;;4973604;28;20034;-63
2023/07/07 03:18:51;;;;;;;37.33;8.60;;;11.90;99.90;;;;;;4979699;28;20031;-63
2023/07/07 03:21:18;;;;;;;16.30;9.02;;;11.90;99.90;;;;;;4972452;28;20035;-63
2023/07/07 03:23:44;;;;;;;12.48;9.77;;;11.90;99.90;;;;;;4956917;28;20073;-63
2023/07/07 03:26:12;;;;;;;14.60;10.93;;;11.90;99.90;;;;;;4965011;28;20081;-63
2023/07/07 03:28:38;;;;;;;20.83;13.30;;;11.90;99.90;;;;;;4970273;28;20053;-63
2023/07/07 03:31:12;;;;;;;17.05;11.73;;;12.00;99.90;;;;;;4953006;28;20433;-63
2023/07/07 03:33:40;;;;;;;14.00;10.30;;;12.00;99.90;;;;;;4970092;28;20042;-63
2023/07/07 03:36:06;;;;;;;15.38;11.35;;;12.00;99.90;;;;;;4971229;28;20039;-63
2023/07/07 03:38:31;;;;;;;23.48;14.23;;;12.10;99.90;;;;;;4971927;28;20039;-63
2023/07/07 03:40:57;;;;;;;14.40;9.95;;;12.10;99.90;;;;;;4972002;28;20088;-63
2023/07/07 03:43:23;;;;;;;17.60;11.52;;;12.10;99.90;;;;;;4973840;28;20037;-63
2023/07/07 03:45:48;;;;;;;17.83;11.52;;;12.00;99.90;;;;;;4971696;28;20030;-64
2023/07/07 03:48:14;;;;;;;13.60;10.18;;;12.00;99.90;;;;;;4971641;28;20043;-63
2023/07/07 03:50:40;;;;;;;11.80;9.40;;;11.90;99.90;;;;;;4969333;28;20050;-63
2023/07/07 03:53:05;;;;;;;15.75;11.00;;;11.90;99.90;;;;;;4971055;28;20037;-64
2023/07/07 03:55:31;;;;;;;17.00;11.60;;;11.90;99.90;;;;;;4971424;28;20528;-64
2023/07/07 03:57:58;;;;;;;19.98;12.85;;;11.90;99.90;;;;;;4974715;28;20030;-64
2023/07/07 04:00:24;;;;;;;16.35;10.20;;;11.90;99.90;;;;;;4974613;28;20114;-64
2023/07/07 04:02:50;;;;;;;16.65;11.65;;;11.90;99.90;;;;;;4974802;28;20129;-63
2023/07/07 04:05:15;;;;;;;14.05;10.43;;;11.90;99.90;;;;;;4973594;28;20042;-64
2023/07/07 04:07:41;;;;;;;16.63;11.63;;;12.00;99.90;;;;;;4977054;28;20584;-64
2023/07/07 04:10:08;;;;;;;17.05;11.88;;;12.00;99.90;;;;;;4974852;28;20047;-64
2023/07/07 04:12:34;;;;;;;17.98;12.68;;;12.00;99.90;;;;;;4974712;28;20047;-65
2023/07/07 04:15:00;;;;;;;24.25;14.20;;;12.10;99.90;;;;;;4972546;28;20031;-65
2023/07/07 04:17:26;;;;;;;17.52;11.82;;;12.20;99.90;;;;;;4974388;28;20069;-65
2023/07/07 04:19:52;;;;;;;21.05;13.38;;;12.30;99.90;;;;;;4974614;28;20042;-65
2023/07/07 04:22:18;;;;;;;17.67;11.65;;;12.30;99.90;;;;;;4971495;28;20041;-66
2023/07/07 04:24:44;;;;;;;19.65;12.40;;;12.30;99.90;;;;;;4973829;28;20078;-65
2023/07/07 04:27:09;;;;;;;16.48;11.85;;;12.40;99.90;;;;;;4972282;28;20042;-64
2023/07/07 04:29:36;;;;;;;20.33;12.02;;;12.40;99.90;;;;;;4972718;28;20158;-66
2023/07/07 04:32:02;;;;;;;21.05;12.75;;;12.50;99.90;;;;;;4974551;28;20065;-65
2023/07/07 04:34:28;;;;;;;18.95;12.65;;;12.60;99.90;;;;;;4975517;28;20485;-66
2023/07/07 04:36:54;;;;;;;19.35;13.32;;;12.70;99.90;;;;;;4972618;28;20039;-65
2023/07/07 04:39:19;;;;;;;24.30;14.23;;;12.80;99.90;;;;;;4977847;28;20428;-64
2023/07/07 04:41:45;;;;;;;20.77;14.70;;;12.90;99.90;;;;;;4977148;28;20047;-64
2023/07/07 04:44:10;;;;;;;24.42;15.60;;;13.00;99.90;;;;;;4974564;28;20055;-63
2023/07/07 04:46:38;;;;;;;21.75;14.10;;;13.10;99.90;;;;;;4975448;28;20043;-66
2023/07/07 04:49:09;;;;;;;21.08;14.10;;;13.30;99.90;;;;;;4972217;28;20066;-63
2023/07/07 04:51:43;;;;;;;27.08;16.40;;;13.40;99.90;;;;;;4978534;28;20444;-65
2023/07/07 04:54:13;;;;;;;22.50;15.20;;;13.50;99.90;;;;;;4974297;28;20089;-64
2023/07/07 04:56:39;;;;;;;22.95;15.45;;;13.60;99.90;;;;;;4973371;28;20057;-64
2023/07/07 04:59:06;;;;;;;23.85;15.60;;;13.70;99.90;;;;;;4955347;28;20102;-64
2023/07/07 05:01:32;;;;;;;25.98;15.20;;;13.80;99.90;;;;;;4973642;28;20663;-66
2023/07/07 05:04:00;;;;;;;25.73;16.33;;;13.90;99.90;;;;;;4972636;28;20100;-65
2023/07/07 05:06:27;;;;;;;24.42;16.48;;;14.00;99.90;;;;;;4975138;28;20405;-66
2023/07/07 05:08:53;;;;;;;23.80;15.98;;;14.10;99.90;;;;;;4970968;28;20049;-65
2023/07/07 05:11:22;;;;;;;27.80;17.63;;;14.10;99.90;;;;;;4971676;28;20047;-64
2023/07/07 05:13:49;;;;;;;25.85;17.15;;;14.30;99.90;;;;;;4970592;28;20041;-65
2023/07/07 05:16:18;;;;;;;25.85;16.20;;;14.40;99.90;;;;;;4972902;28;20121;-64
2023/07/07 05:18:44;;;;;;;27.42;16.10;;;14.50;99.90;;;;;;4974377;28;20070;-64
2023/07/07 05:21:11;;;;;;;23.88;15.50;;;14.60;99.90;;;;;;4971560;28;20506;-64
2023/07/07 05:23:37;;;;;;;23.88;16.48;;;14.70;99.90;;;;;;4973694;28;20042;-64
2023/07/07 05:26:04;;;;;;;27.55;16.63;;;14.80;99.90;;;;;;4974489;28;20125;-63
2023/07/07 05:28:30;;;;;;;25.90;16.13;;;14.90;99.90;;;;;;4972256;28;20042;-63
2023/07/07 05:30:55;;;;;;;28.60;16.50;;;15.10;99.90;;;;;;4976593;28;20046;-65
2023/07/07 05:33:22;;;;;;;27.73;16.55;;;15.20;99.90;;;;;;4973849;28;20042;-62
2023/07/07 05:35:53;;;;;;;28.13;16.83;;;15.30;99.90;;;;;;4974218;28;20046;-64
2023/07/07 05:38:21;;;;;;;24.45;16.50;;;15.50;99.90;;;;;;4970586;28;20114;-66
2023/07/07 05:40:46;;;;;;;27.02;16.20;;;15.60;99.90;;;;;;4973592;28;20047;-63
2023/07/07 05:43:17;;;;;;;30.58;17.00;;;15.70;99.90;;;;;;4984946;28;20038;-63
2023/07/07 05:45:43;;;;;;;24.05;16.48;;;15.80;99.90;;;;;;4985645;28;20117;-63
2023/07/07 05:48:10;;;;;;;28.65;16.38;;;15.80;99.90;;;;;;4973898;28;20467;-63
2023/07/07 05:50:38;;;;;;;29.15;16.25;;;15.90;99.90;;;;;;4973251;28;20075;-65
2023/07/07 05:53:04;;;;;;;22.90;16.50;;;16.00;99.90;;;;;;4971745;28;20046;-67
2023/07/07 05:55:33;;;;;;;27.35;16.00;;;16.20;99.90;;;;;;4975292;28;20230;-64
2023/07/07 05:58:03;;;;;;;25.95;15.52;;;16.30;99.90;;;;;;4972978;28;20144;-64
2023/07/07 06:00:30;;;;;;;22.20;16.27;;;16.40;99.90;;;;;;4974005;28;20034;-64
2023/07/07 06:02:57;;;;;;;22.70;15.75;;;16.50;99.90;;;;;;4971332;28;20489;-64
2023/07/07 06:05:23;;;;;;;24.10;17.13;;;16.60;99.90;;;;;;4973485;28;20042;-63
2023/07/07 06:07:50;;;;;;;22.45;16.05;;;16.70;99.90;;;;;;4973189;28;20043;-64
2023/07/07 06:10:16;;;;;;;21.90;15.07;;;16.80;99.90;;;;;;4940672;28;20398;-63
2023/07/07 06:12:42;;;;;;;24.20;15.20;;;16.90;99.90;;;;;;4974421;28;20046;-61
2023/07/07 06:15:08;;;;;;;23.13;15.10;;;16.90;99.90;;;;;;4983575;28;20046;-61
2023/07/07 06:17:33;;;;;;;20.77;14.25;;;17.00;99.90;;;;;;4985239;28;20068;-61
2023/07/07 06:19:59;;;;;;;23.08;14.80;;;17.10;99.90;;;;;;4982211;28;20049;-62
2023/07/07 06:22:25;;;;;;;21.85;14.95;;;17.20;99.90;;;;;;4977425;28;20041;-61
2023/07/07 06:24:51;;;;;;;27.13;14.77;;;17.40;99.90;;;;;;4976619;28;20035;-62
2023/07/07 06:27:17;;;;;;;20.98;14.32;;;17.40;99.90;;;;;;4972939;28;20097;-64
2023/07/07 06:29:43;;;;;;;20.63;14.25;;;17.50;99.90;;;;;;4973634;28;20509;-61
2023/07/07 06:32:09;;;;;;;23.77;14.50;;;17.60;99.90;;;;;;4972134;28;20121;-61
2023/07/07 06:34:34;;;;;;;19.40;12.65;;;17.70;99.90;;;;;;4969631;28;20072;-61
2023/07/07 06:37:00;;;;;;;18.55;13.32;;;17.80;99.90;;;;;;4977892;28;20071;-62
2023/07/07 06:39:27;;;;;;;20.67;13.25;;;17.90;99.90;;;;;;4977993;28;20118;-62
2023/07/07 06:41:53;;;;;;;24.05;12.88;;;18.00;99.90;;;;;;4972942;28;20050;-61
2023/07/07 06:44:19;;;;;;;15.43;11.38;;;18.20;99.90;;;;;;4970277;28;20034;-61
2023/07/07 06:46:45;;;;;;;20.20;11.45;;;18.30;99.90;;;;;;4972578;28;20101;-61
2023/07/07 06:49:10;;;;;;;17.67;11.27;;;18.50;99.90;;;;;;4971610;28;20054;-61
2023/07/07 06:51:36;;;;;;;18.08;11.05;;;18.60;99.90;;;;;;4972865;28;20042;-62
2023/07/07 06:54:02;;;;;;;17.60;10.63;;;18.70;99.90;;;;;;4975982;28;20516;-60
2023/07/07 06:56:27;;;;;;;24.77;11.68;;;18.80;99.90;;;;;;4987309;28;20041;-61
2023/07/07 06:58:53;;;;;;;14.98;10.15;;;18.90;99.90;;;;;;4972918;28;20064;-61
2023/07/07 07:01:19;;;;;;;16.85;9.60;;;19.10;99.90;;;;;;4969281;28;20215;-61
2023/07/07 07:03:44;;;;;;;13.68;8.63;;;19.20;99.90;;;;;;4969409;28;20181;-63
2023/07/07 07:06:11;;;;;;;14.57;7.90;;;19.30;99.90;;;;;;4972072;28;20517;-61
2023/07/07 07:08:37;;;;;;;12.38;8.10;;;19.30;99.90;;;;;;4970587;28;20039;-65
2023/07/07 07:11:02;;;;;;;16.90;8.13;;;19.40;99.90;;;;;;4971680;28;20086;-61
2023/07/07 07:13:28;;;;;;;9.85;6.50;;;19.50;99.90;;;;;;4977390;28;20037;-61
2023/07/07 07:15:55;;;;;;;13.00;6.78;;;19.60;99.90;;;;;;4992106;28;20092;-61
2023/07/07 07:18:20;;;;;;;12.23;6.82;;;19.70;99.90;;;;;;4969578;28;20031;-60
2023/07/07 07:20:50;;;;;;;9.10;6.32;;;19.80;99.90;;;;;;4988048;28;20088;-62
2023/07/07 07:23:17;;;;;;;10.40;5.63;;;19.90;99.90;;;;;;4972735;28;20034;-61
2023/07/07 07:25:43;;;;;;;15.75;6.03;;;19.90;99.90;;;;;;4967700;28;20520;-61
2023/07/07 07:28:10;;;;;;;13.27;6.55;;;20.00;99.90;;;;;;4971404;28;20043;-61
2023/07/07 07:30:35;;;;;;;21.58;6.53;;;20.10;99.90;;;;;;4978123;28;20077;-62
2023/07/07 07:33:05;;;;;;;9.18;5.00;;;20.20;99.90;;;;;;4979308;28;20469;-60
2023/07/07 07:35:31;;;;;;;9.38;4.78;;;20.40;99.90;;;;;;4989473;28;20088;-61
2023/07/07 07:37:57;;;;;;;8.73;5.40;;;20.40;99.90;;;;;;4978471;28;20042;-61
2023/07/07 07:40:23;;;;;;;14.98;4.68;;;20.50;99.90;;;;;;4976159;28;20049;-63
2023/07/07 07:42:52;;;;;;;9.52;4.28;;;20.60;99.90;;;;;;4976341;28;20043;-60
2023/07/07 07:45:21;;;;;;;7.15;4.30;;;20.70;99.90;;;;;;4978971;28;20050;-61
2023/07/07 07:47:47;;;;;;;9.75;4.50;;;20.80;99.90;;;;;;4995637;28;20084;-61
2023/07/07 07:50:15;;;;;;;8.43;4.40;;;20.90;99.90;;;;;;4995204;28;20045;-64
2023/07/07 07:52:41;;;;;;;9.40;4.30;;;21.00;99.90;;;;;;4986465;28;20421;-60
2023/07/07 07:55:07;;;;;;;6.78;4.03;;;21.10;99.90;;;;;;4975642;28;20049;-61
2023/07/07 07:57:32;;;;;;;11.45;4.50;;;21.20;99.90;;;;;;4975596;28;20038;-61
2023/07/07 07:59:58;;;;;;;6.70;3.90;;;21.30;99.90;;;;;;4955345;28;20050;-61
2023/07/07 08:02:24;;;;;;;6.85;3.72;;;21.30;99.90;;;;;;4989440;28;20034;-61
2023/07/07 08:04:50;;;;;;;15.05;4.40;;;21.40;99.90;;;;;;4979423;28;20053;-61
2023/07/07 08:07:15;;;;;;;5.78;3.40;;;21.50;99.90;;;;;;4977863;28;20050;-61
2023/07/07 08:09:41;;;;;;;5.82;3.70;;;21.60;99.90;;;;;;4974957;28;20049;-61
2023/07/07 08:12:09;;;;;;;4.97;3.17;;;21.50;99.90;;;;;;4976592;28;20038;-63
2023/07/07 08:14:34;;;;;;;6.43;3.20;;;21.60;99.90;;;;;;4979098;28;20170;-61
2023/07/07 08:17:04;;;;;;;5.88;3.10;;;21.60;99.90;;;;;;4980952;28;20136;-61
2023/07/07 08:19:31;;;;;;;8.10;3.78;;;21.60;99.70;;;;;;4980276;28;20049;-61
2023/07/07 08:21:57;;;;;;;6.15;3.42;;;21.80;99.90;;;;;;4994834;28;20038;-61
2023/07/07 08:24:24;;;;;;;8.95;3.28;;;22.00;99.90;;;;;;4991936;28;20046;-63
2023/07/07 08:26:50;;;;;;;4.60;3.00;;;22.00;98.80;;;;;;4976890;28;20485;-62
2023/07/07 08:29:16;;;;;;;7.18;3.17;;;22.00;98.80;;;;;;4974443;28;20039;-61
2023/07/07 08:31:42;;;;;;;5.25;2.88;;;22.20;99.30;;;;;;4973392;28;20472;-61
2023/07/07 08:34:08;;;;;;;6.28;2.88;;;22.20;98.40;;;;;;4965008;28;20046;-61
2023/07/07 08:36:34;;;;;;;4.70;3.00;;;22.20;97.80;;;;;;4973900;28;20031;-63
2023/07/07 08:39:28;;;;;;;6.38;2.92;;;22.30;98.30;;;;;;4974284;28;20401;-61
2023/07/07 08:41:59;;;;;;;5.35;3.03;;;22.50;97.70;;;;;;4971211;28;20055;-63
2023/07/07 08:44:25;;;;;;;6.47;3.20;;;22.50;95.90;;;;;;4979528;28;20043;-61
2023/07/07 08:47:00;;;;;;;5.15;3.00;;;22.50;96.70;;;;;;4977915;28;20039;-61
2023/07/07 08:49:37;;;;;;;4.85;2.88;;;22.60;96.70;;;;;;4972025;28;20042;-62
2023/07/07 08:52:28;;;;;;;8.52;3.33;;;22.70;93.40;;;;;;4984870;28;20046;-61
2023/07/07 08:55:16;;;;;;;5.75;2.90;;;22.80;93.20;;;;;;4994101;28;20097;-61
2023/07/07 08:58:02;;;;;;;10.73;2.90;;;22.90;94.10;;;;;;4986542;28;20117;-60
2023/07/07 09:00:44;;;;;;;9.20;3.17;;;22.90;94.80;;;;;;4979196;28;20502;-61
2023/07/07 09:03:12;;;;;;;10.52;3.53;;;23.10;93.50;;;;;;4974682;28;20049;-61
2023/07/07 09:06:13;;;;;;;5.57;3.00;;;23.20;94.50;;;;;;4974480;28;20035;-60
2023/07/07 09:09:04;;;;;;;4.13;2.75;;;23.20;91.30;;;;;;4975602;28;20557;-61
2023/07/07 09:12:15;;;;;;;5.60;3.35;;;23.30;92.60;;;;;;4974350;28;20051;-61
2023/07/07 09:14:41;;;;;;;5.45;2.80;;;23.40;91.30;;;;;;4894331;29;20472;-61
2023/07/07 09:17:22;;;;;;;7.20;3.70;;;23.50;94.40;;;;;;4966189;28;20409;-61
2023/07/07 09:19:49;;;;;;;7.80;2.97;;;23.70;92.50;;;;;;4974391;28;20057;-61
2023/07/07 09:22:28;;;;;;;6.55;3.20;;;23.80;92.80;;;;;;4974095;28;20564;-62
2023/07/07 09:25:19;;;;;;;5.22;2.97;;;23.80;92.70;;;;;;4972719;28;20046;-61
2023/07/07 09:27:52;;;;;;;5.65;3.13;;;23.80;90.20;;;;;;4973613;28;20433;-61
2023/07/07 09:30:24;;;;;;;5.25;3.30;;;23.70;91.30;;;;;;4974311;28;20106;-62
2023/07/07 09:32:50;;;;;;;7.18;3.03;;;23.90;91.80;;;;;;4972165;28;20035;-65
2023/07/07 09:35:18;;;;;;;6.28;2.95;;;24.00;91.40;;;;;;4982118;28;20478;-62
2023/07/07 09:38:05;;;;;;;5.57;3.40;;;24.10;90.50;;;;;;4977508;28;20035;-61
2023/07/07 09:40:38;;;;;;;7.20;3.22;;;24.10;90.30;;;;;;4970503;28;20039;-62
2023/07/07 09:43:30;;;;;;;7.38;3.00;;;23.90;88.00;;;;;;4974925;28;20038;-61
2023/07/07 09:46:24;;;;;;;7.25;3.10;;;24.00;86.80;;;;;;4973876;28;20043;-61
2023/07/07 09:49:03;;;;;;;5.75;3.30;;;24.20;87.10;;;;;;4975696;28;20337;-61
2023/07/07 09:51:54;;;;;;;5.63;3.17;;;24.30;88.50;;;;;;4973404;28;20031;-62
2023/07/07 09:54:22;;;;;;;6.85;3.28;;;24.30;85.10;;;;;;4974013;28;20037;-62
2023/07/07 09:56:57;;;;;;;4.53;2.88;;;24.50;88.60;;;;;;4969681;28;20046;-61
2023/07/07 09:59:28;;;;;;;4.68;3.10;;;24.50;86.40;;;;;;4973470;28;20513;-62
2023/07/07 10:01:55;;;;;;;6.45;3.28;;;24.60;86.80;;;;;;4991128;28;20125;-63
2023/07/07 10:04:24;;;;;;;9.00;2.92;;;24.70;86.50;;;;;;4982699;28;20509;-62
2023/07/07 10:06:57;;;;;;;5.45;2.92;;;24.80;86.10;;;;;;4988005;22;20058;-64
2023/07/07 10:09:24;;;;;;;4.53;2.92;;;24.80;85.40;;;;;;4985420;28;20046;-64
2023/07/07 10:11:50;;;;;;;5.15;3.20;;;24.90;86.70;;;;;;4992996;28;20031;-64
2023/07/07 10:14:17;;;;;;;4.68;3.10;;;25.00;87.10;;;;;;4973829;28;20049;-64
2023/07/07 10:16:48;;;;;;;5.88;3.15;;;25.00;83.20;;;;;;4981156;28;20030;-63
2023/07/07 10:19:14;;;;;;;5.28;3.30;;;25.00;78.00;;;;;;4972847;28;20126;-64
2023/07/07 10:21:42;;;;;;;6.35;3.40;;;25.00;83.20;;;;;;4963092;28;20117;-63
2023/07/07 10:24:11;;;;;;;6.20;3.08;;;25.10;78.80;;;;;;4972020;28;20049;-63
2023/07/07 10:26:44;;;;;;;5.57;2.83;;;25.10;79.80;;;;;;4956145;28;20516;-64
2023/07/07 10:29:15;;;;;;;9.15;3.10;;;25.10;81.40;;;;;;4960042;28;20089;-64
2023/07/07 10:31:43;;;;;;;4.88;3.45;;;25.20;80.60;;;;;;4967705;28;20062;-64
2023/07/07 10:34:21;;;;;;;5.13;3.42;;;25.20;79.80;;;;;;4972631;28;20053;-64
2023/07/07 10:36:46;;;;;;;6.10;3.30;;;25.30;76.90;;;;;;4973146;28;20125;-64
2023/07/07 10:39:12;;;;;;;6.53;3.42;;;25.30;81.70;;;;;;4969199;28;20123;-63
2023/07/07 10:41:38;;;;;;;5.32;3.40;;;25.40;81.40;;;;;;4969060;28;20050;-64
2023/07/07 10:44:04;;;;;;;4.57;3.17;;;25.50;80.70;;;;;;4972814;28;20039;-63
2023/07/07 10:46:29;;;;;;;5.10;3.50;;;25.70;79.50;;;;;;4965268;28;20405;-63
2023/07/07 10:48:56;;;;;;;8.02;3.38;;;25.70;79.40;;;;;;4971723;28;20042;-64
2023/07/07 10:51:53;;;;;;;5.60;2.85;;;25.70;79.90;;;;;;4972580;28;20085;-64
2023/07/07 10:54:26;;;;;;;7.20;3.30;;;25.80;71.50;;;;;;4972843;28;20035;-64
2023/07/07 10:57:02;;;;;;;7.30;3.45;;;25.70;76.00;;;;;;4965173;28;20070;-64
2023/07/07 10:59:37;;;;;;;7.75;2.97;;;25.90;77.50;;;;;;4972086;28;20041;-64
2023/07/07 11:02:14;;;;;;;5.75;3.40;;;26.00;71.70;;;;;;4968887;28;20527;-63
2023/07/07 11:04:53;;;;;;;6.35;3.42;;;26.00;75.90;;;;;;4955195;28;20521;-62
2023/07/07 11:07:54;;;;;;;5.90;2.92;;;26.00;72.60;;;;;;4963787;28;20070;-63
2023/07/07 11:10:38;;;;;;;;;;;26.10;71.50;;;;;;4969756;28;20188;-64
2023/07/07 11:13:34;;;;;;;4.43;3.10;;;26.10;67.60;;;;;;4947528;28;20412;-64
2023/07/07 11:16:02;;;;;;;5.72;3.25;;;26.10;69.40;;;;;;4951983;28;20039;-64
2023/07/07 11:18:55;;;;;;;6.45;3.03;;;26.10;72.00;;;;;;4959214;28;20035;-64
2023/07/07 11:21:54;;;;;;;4.70;2.63;;;26.30;67.60;;;;;;4946048;28;20109;-63
2023/07/07 11:24:30;;;;;;;5.90;3.17;;;26.50;65.40;;;;;;4963463;28;20540;-65
2023/07/07 11:27:22;;;;;;;4.78;3.00;;;26.40;68.40;;;;;;4968727;28;20049;-63
2023/07/07 11:30:25;;;;;;;6.45;3.30;;;26.40;68.00;;;;;;4954215;28;20126;-64
2023/07/07 11:32:59;;;;;;;6.38;3.00;;;26.60;66.10;;;;;;4941520;28;20047;-64
2023/07/07 11:35:49;;;;;;;4.03;3.00;;;26.60;67.60;;;;;;4963601;28;20042;-64
2023/07/07 11:38:26;;;;;;;5.03;2.97;;;26.70;62.10;;;;;;4961981;28;20038;-64
2023/07/07 11:41:11;;;;;;;5.35;3.13;;;26.80;59.90;;;;;;4946255;28;20043;-64
2023/07/07 11:44:38;;;;;;;4.80;2.95;;;26.80;58.10;;;;;;4968571;28;20398;-67
2023/07/07 11:47:34;;;;;;;6.43;2.90;;;26.90;59.60;;;;;;4879565;29;20564;-64
2023/07/07 11:50:26;;;;;;;4.80;2.90;;;27.00;57.80;;;;;;4907516;29;20048;-64
2023/07/07 11:53:20;;;;;;;4.10;3.17;;;27.10;61.50;;;;;;4955076;28;20647;-65
2023/07/07 11:56:00;;;;;;;6.72;3.30;;;27.20;61.20;;;;;;4949728;28;20097;-65
2023/07/07 11:58:47;;;;;;;4.55;3.17;;;27.20;62.80;;;;;;4952574;28;20047;-65
2023/07/07 12:01:15;;;;;;;4.80;3.20;;;27.20;62.50;;;;;;4962717;28;20045;-65
2023/07/07 12:03:52;;;;;;;6.38;2.90;;;27.30;62.50;;;;;;4959743;28;20046;-65
2023/07/07 12:06:32;;;;;;;4.57;2.78;;;27.30;60.10;;;;;;4964114;28;20117;-65
2023/07/07 12:09:06;;;;;;;5.60;2.60;;;27.40;60.90;;;;;;4968922;28;20065;-65
2023/07/07 12:11:38;;;;;;;4.35;2.40;;;27.40;60.30;;;;;;4952355;28;20306;-64
2023/07/07 12:14:13;;;;;;;3.97;2.50;;;27.40;59.20;;;;;;4966194;28;20167;-65
2023/07/07 12:16:41;;;;;;;4.95;2.83;;;27.50;59.00;;;;;;4963778;28;20038;-65
2023/07/07 12:19:25;;;;;;;3.58;2.85;;;27.60;59.30;;;;;;4973502;28;20575;-65
2023/07/07 12:21:53;;;;;;;5.30;3.13;;;27.70;56.50;;;;;;4962655;28;20062;-64
2023/07/07 12:24:42;;;;;;;4.50;3.08;;;27.70;57.10;;;;;;4983222;28;20041;-65
2023/07/07 12:27:39;;;;;;;4.38;2.80;;;27.80;58.30;;;;;;4953873;28;20051;-65
2023/07/07 12:30:12;;;;;;;12.93;2.97;;;27.90;55.30;;;;;;4967694;28;20055;-65
2023/07/07 12:32:38;;;;;;;6.20;3.00;;;28.00;56.10;;;;;;4974883;28;20042;-66
2023/07/07 12:35:18;;;;;;;6.50;2.75;;;28.00;56.90;;;;;;4963240;28;20061;-67
2023/07/07 12:37:44;;;;;;;5.80;3.03;;;28.10;56.00;;;;;;4963470;28;20047;-66
2023/07/07 12:40:10;;;;;;;6.47;3.25;;;28.10;56.90;;;;;;4955834;28;20485;-66
2023/07/07 12:42:38;;;;;;;9.95;3.22;;;28.20;57.50;;;;;;4954573;28;20042;-66
2023/07/07 12:45:09;;;;;;;5.15;3.08;;;28.30;57.80;;;;;;4959336;28;20069;-66
2023/07/07 12:47:40;;;;;;;4.70;3.10;;;28.10;55.60;;;;;;4973942;28;20046;-66
2023/07/07 12:50:22;;;;;;;;;;;28.20;56.20;;;;;;4957421;28;20039;-65
2023/07/07 12:52:47;;;;;;;4.88;3.03;;;28.10;53.20;;;;;;4954748;29;19925;-66
2023/07/07 12:55:27;;;;;;;4.03;2.63;;;28.10;56.70;;;;;;4961904;28;20109;-66
2023/07/07 12:58:01;;;;;;;5.63;2.78;;;28.20;56.90;;;;;;4962364;28;20042;-66